Time;durP1;ratioP1;P1;durP2;ratioP2;P2;SDS_P1;SDS_P2;PMS_P1;PMS_P2;Temp;Humidity;BMP_temperature;BMP_pressure;BME280_temperature;BME280_humidity;BME280_pressure;Samples;Min_cycle;Max_cycle;Signal;HPM_P1;HPM_P2
2022/01/02 00:01:00;;;;;;;19.48;15.70;;;6.60;99.90;;;;;;5109923;28;20195;-79
2022/01/02 00:03:34;;;;;;;16.70;15.00;;;6.60;99.90;;;;;;5109041;28;20593;-79
2022/01/02 00:06:03;;;;;;;18.08;15.15;;;6.60;99.90;;;;;;5109415;28;20187;-79
2022/01/02 00:08:32;;;;;;;17.08;15.10;;;6.60;99.90;;;;;;5102664;28;20192;-79
2022/01/02 00:11:00;;;;;;;17.75;14.85;;;6.60;99.90;;;;;;5099698;28;20740;-78
2022/01/02 00:13:33;;;;;;;15.98;14.27;;;6.60;99.90;;;;;;5098808;28;20248;-79
2022/01/02 00:16:05;;;;;;;18.20;15.10;;;6.60;99.90;;;;;;5110900;28;20207;-79
2022/01/02 00:18:38;;;;;;;17.20;15.40;;;6.60;99.90;;;;;;5090613;28;20196;-79
2022/01/02 00:21:08;;;;;;;16.95;15.25;;;6.60;99.90;;;;;;5098656;28;20183;-80
2022/01/02 00:23:48;;;;;;;16.92;15.15;;;6.60;99.90;;;;;;5094217;28;20275;-80
2022/01/02 00:26:17;;;;;;;15.52;13.93;;;6.70;99.90;;;;;;5098608;28;20190;-80
2022/01/02 00:28:47;;;;;;;15.30;13.70;;;6.70;99.90;;;;;;5111056;28;20199;-81
2022/01/02 00:31:15;;;;;;;16.77;14.98;;;6.70;99.90;;;;;;5108577;28;20191;-81
2022/01/02 00:33:43;;;;;;;17.25;14.57;;;6.70;99.90;;;;;;5111152;28;20227;-80
2022/01/02 00:36:10;;;;;;;16.35;13.98;;;6.70;99.90;;;;;;5108942;28;20217;-81
2022/01/02 00:38:38;;;;;;;15.60;14.00;;;6.70;99.90;;;;;;5089534;28;20192;-81
2022/01/02 00:41:06;;;;;;;15.43;13.93;;;6.80;99.90;;;;;;5101994;28;20200;-81
2022/01/02 00:43:42;;;;;;;14.65;13.15;;;6.80;99.90;;;;;;5090763;28;20200;-81
2022/01/02 00:46:10;;;;;;;14.60;12.95;;;6.80;99.90;;;;;;5104590;28;20186;-80
2022/01/02 00:48:42;;;;;;;14.82;13.23;;;6.90;99.90;;;;;;5114060;28;20607;-81
2022/01/02 00:51:20;;;;;;;14.52;13.13;;;6.80;99.90;;;;;;5099712;28;20218;-81
2022/01/02 00:53:48;;;;;;;15.15;13.65;;;6.80;99.90;;;;;;5094251;28;20227;-81
2022/01/02 00:56:18;;;;;;;15.20;13.50;;;6.80;99.90;;;;;;5100707;28;20183;-81
2022/01/02 00:58:51;;;;;;;15.35;13.73;;;6.70;99.90;;;;;;5105019;28;20202;-81
2022/01/02 01:01:24;;;;;;;13.73;12.52;;;6.70;99.90;;;;;;5110908;28;20686;-80
2022/01/02 01:03:54;;;;;;;14.60;12.80;;;6.70;99.90;;;;;;5111734;28;20554;-81
2022/01/02 01:06:25;;;;;;;17.02;13.38;;;6.70;99.90;;;;;;5099934;28;20225;-81
2022/01/02 01:08:56;;;;;;;14.10;12.60;;;6.60;99.90;;;;;;5095448;28;20206;-81
2022/01/02 01:11:26;;;;;;;15.30;13.70;;;6.60;99.90;;;;;;5106778;28;20614;-81
2022/01/02 01:13:53;;;;;;;15.45;13.30;;;6.60;99.90;;;;;;5094912;28;20231;-81
2022/01/02 01:16:20;;;;;;;18.38;14.63;;;6.50;99.90;;;;;;5113558;28;20198;-81
2022/01/02 01:18:48;;;;;;;15.10;13.48;;;6.40;99.90;;;;;;5093841;28;20231;-81
2022/01/02 01:21:15;;;;;;;15.63;13.73;;;6.40;99.90;;;;;;5103142;28;20577;-81
2022/01/02 01:23:43;;;;;;;15.30;13.70;;;6.30;99.90;;;;;;5114452;28;20279;-79
2022/01/02 01:26:12;;;;;;;15.85;14.13;;;6.30;99.90;;;;;;5107417;28;20273;-78
2022/01/02 01:28:39;;;;;;;15.75;14.20;;;6.30;99.90;;;;;;5099094;28;20281;-79
2022/01/02 01:31:06;;;;;;;15.73;14.10;;;6.20;99.90;;;;;;5093433;28;20234;-79
2022/01/02 01:33:33;;;;;;;17.65;15.13;;;6.20;99.90;;;;;;5093997;28;20219;-79
2022/01/02 01:36:00;;;;;;;16.70;15.00;;;6.10;99.90;;;;;;5113429;28;20187;-79
2022/01/02 01:38:27;;;;;;;15.20;13.73;;;6.10;99.90;;;;;;5109731;28;20247;-79
2022/01/02 01:41:01;;;;;;;17.17;15.38;;;6.00;99.90;;;;;;5097905;28;20279;-79
2022/01/02 01:43:37;;;;;;;17.40;15.20;;;5.90;99.90;;;;;;5101520;28;20196;-79
2022/01/02 01:46:04;;;;;;;17.48;15.27;;;5.90;99.90;;;;;;5097527;28;20270;-80
2022/01/02 01:48:31;;;;;;;18.55;16.63;;;5.80;99.90;;;;;;5108221;28;20253;-79
2022/01/02 01:50:58;;;;;;;16.92;15.13;;;5.80;99.90;;;;;;5101261;28;20191;-79
2022/01/02 01:53:25;;;;;;;18.40;16.40;;;5.70;99.90;;;;;;5113633;28;20619;-79
2022/01/02 01:55:55;;;;;;;17.75;15.77;;;5.70;99.90;;;;;;5108631;28;20195;-79
2022/01/02 01:58:23;;;;;;;18.20;15.68;;;5.70;99.90;;;;;;5102889;28;20326;-79
2022/01/02 02:00:50;;;;;;;16.75;15.05;;;5.60;99.90;;;;;;5109721;28;20222;-78
2022/01/02 02:03:17;;;;;;;21.25;16.65;;;5.70;99.90;;;;;;5096743;28;20195;-79
2022/01/02 02:05:44;;;;;;;18.42;16.55;;;5.60;99.90;;;;;;5099851;28;20281;-79
2022/01/02 02:08:11;;;;;;;17.88;15.77;;;5.60;99.90;;;;;;5108176;28;20198;-79
2022/01/02 02:10:41;;;;;;;16.83;15.02;;;5.60;99.90;;;;;;5102596;28;20191;-78
2022/01/02 02:13:08;;;;;;;17.77;15.35;;;5.60;99.90;;;;;;5112078;28;20218;-79
2022/01/02 02:15:37;;;;;;;17.30;15.60;;;5.60;99.90;;;;;;5106994;28;20279;-79
2022/01/02 02:18:04;;;;;;;14.98;13.38;;;5.60;99.90;;;;;;5106972;28;20843;-79
2022/01/02 02:20:36;;;;;;;15.70;14.10;;;5.60;99.90;;;;;;5103964;28;20195;-78
2022/01/02 02:23:04;;;;;;;16.52;14.73;;;5.60;99.90;;;;;;5095657;28;20211;-79
2022/01/02 02:25:33;;;;;;;16.60;14.70;;;5.60;99.90;;;;;;5102688;28;20223;-79
2022/01/02 02:28:01;;;;;;;15.32;13.68;;;5.60;99.90;;;;;;5110470;28;20268;-79
2022/01/02 02:30:30;;;;;;;16.50;14.65;;;5.60;99.90;;;;;;5092689;28;20199;-79
2022/01/02 02:32:59;;;;;;;15.13;13.63;;;5.60;99.90;;;;;;5093857;28;20230;-79
2022/01/02 02:35:27;;;;;;;14.93;13.38;;;5.60;99.90;;;;;;5092993;28;20188;-79
2022/01/02 02:37:56;;;;;;;14.98;13.07;;;5.50;99.90;;;;;;5105121;28;20677;-79
2022/01/02 02:40:28;;;;;;;15.48;13.95;;;5.50;99.90;;;;;;5089923;28;20297;-78
2022/01/02 02:43:00;;;;;;;13.90;12.40;;;5.50;99.90;;;;;;5110248;28;20224;-79
2022/01/02 02:51:06;;;;;;;15.10;13.27;;;5.40;99.90;;;;;;5111665;28;20223;-79
2022/01/02 02:53:37;;;;;;;13.88;12.40;;;5.40;99.90;;;;;;5094948;28;20731;-79
2022/01/02 02:56:14;;;;;;;15.23;13.63;;;5.40;99.90;;;;;;5104139;28;20184;-80
2022/01/02 02:58:42;;;;;;;13.32;12.02;;;5.30;99.90;;;;;;5101418;28;20206;-79
2022/01/02 03:01:11;;;;;;;14.20;12.90;;;5.30;99.90;;;;;;5104107;28;20271;-79
2022/01/02 03:03:39;;;;;;;14.02;12.35;;;5.30;99.90;;;;;;5098180;28;20188;-79
2022/01/02 03:06:06;;;;;;;12.80;11.60;;;5.30;99.90;;;;;;5103459;28;20226;-79
2022/01/02 03:08:36;;;;;;;13.63;11.90;;;5.30;99.90;;;;;;5107478;28;20646;-79
2022/01/02 03:11:04;;;;;;;14.27;12.88;;;5.30;99.90;;;;;;5101204;28;20267;-79
2022/01/02 03:13:31;;;;;;;14.35;12.93;;;5.30;99.90;;;;;;5109596;28;20310;-79
2022/01/02 03:15:57;;;;;;;13.23;11.82;;;5.20;99.90;;;;;;5094475;28;20286;-79
2022/01/02 03:18:24;;;;;;;13.07;11.77;;;5.20;99.90;;;;;;5121533;28;20210;-79
2022/01/02 03:20:51;;;;;;;12.80;11.50;;;5.20;99.90;;;;;;5127183;28;20214;-78
2022/01/02 03:23:18;;;;;;;13.45;12.05;;;5.20;99.90;;;;;;5122338;28;20199;-80
2022/01/02 03:25:47;;;;;;;13.85;12.55;;;5.20;99.90;;;;;;5109853;28;20678;-79
2022/01/02 03:28:14;;;;;;;13.60;12.20;;;5.20;99.90;;;;;;5114255;28;20553;-79
2022/01/02 03:30:41;;;;;;;13.65;12.23;;;5.30;99.90;;;;;;5121716;28;20263;-79
2022/01/02 03:33:08;;;;;;;14.05;12.63;;;5.30;99.90;;;;;;5136350;28;20199;-79
2022/01/02 03:35:35;;;;;;;12.27;10.85;;;5.30;99.90;;;;;;5121887;28;20225;-79
2022/01/02 03:38:02;;;;;;;11.95;10.85;;;5.30;99.90;;;;;;5116210;28;20195;-78
2022/01/02 03:40:30;;;;;;;12.82;11.45;;;5.30;99.90;;;;;;5102313;28;20228;-79
2022/01/02 03:42:59;;;;;;;12.00;10.68;;;5.40;99.90;;;;;;5112580;28;20191;-79
2022/01/02 03:45:26;;;;;;;11.82;10.63;;;5.40;99.90;;;;;;5097159;28;20315;-79
2022/01/02 03:47:53;;;;;;;12.32;11.20;;;5.40;99.90;;;;;;5109083;28;20191;-79
2022/01/02 03:50:20;;;;;;;12.25;10.90;;;5.40;99.90;;;;;;5110622;28;20642;-79
2022/01/02 03:52:47;;;;;;;11.35;10.20;;;5.40;99.90;;;;;;5111154;28;20661;-79
2022/01/02 03:55:14;;;;;;;11.90;10.80;;;5.40;99.90;;;;;;5109346;28;20307;-79
2022/01/02 03:57:41;;;;;;;11.88;10.77;;;5.40;99.90;;;;;;5111807;28;20660;-79
2022/01/02 04:00:12;;;;;;;11.23;10.23;;;5.40;99.90;;;;;;5110184;28;20223;-79
2022/01/02 04:02:39;;;;;;;11.95;10.75;;;5.50;99.90;;;;;;5111912;28;20301;-78
2022/01/02 04:05:07;;;;;;;11.18;10.07;;;5.40;99.90;;;;;;5103118;28;20198;-79
2022/01/02 04:07:35;;;;;;;11.35;10.27;;;5.40;99.90;;;;;;5111132;28;20277;-79
2022/01/02 04:10:05;;;;;;;11.00;9.90;;;5.50;99.90;;;;;;5099851;28;20287;-79
2022/01/02 04:12:33;;;;;;;11.30;10.20;;;5.30;99.90;;;;;;5110366;28;20215;-79
2022/01/02 04:15:00;;;;;;;11.02;9.80;;;5.30;99.90;;;;;;5104264;28;20258;-78
2022/01/02 04:17:29;;;;;;;11.52;10.43;;;5.40;99.90;;;;;;5103657;28;20220;-79
2022/01/02 04:19:56;;;;;;;10.55;9.50;;;5.30;99.90;;;;;;5097454;28;20263;-79
2022/01/02 04:22:23;;;;;;;12.32;11.02;;;5.30;99.90;;;;;;5100997;28;20290;-79
2022/01/02 04:24:50;;;;;;;11.50;10.07;;;5.30;99.90;;;;;;5103694;28;20259;-79
2022/01/02 04:27:19;;;;;;;10.98;9.88;;;5.30;99.90;;;;;;5106611;28;20584;-79
2022/01/02 04:29:46;;;;;;;10.88;9.88;;;5.30;99.90;;;;;;5109812;28;20198;-79
2022/01/02 04:32:13;;;;;;;11.52;10.40;;;5.30;99.90;;;;;;5106246;28;20218;-79
2022/01/02 04:34:42;;;;;;;11.60;10.50;;;5.30;99.90;;;;;;5103763;28;20227;-80
2022/01/02 04:37:10;;;;;;;11.27;10.13;;;5.30;99.90;;;;;;5105632;28;20282;-79
2022/01/02 04:39:37;;;;;;;11.82;10.63;;;5.30;99.90;;;;;;5104857;28;20217;-80
2022/01/02 04:42:05;;;;;;;10.80;9.70;;;5.30;99.90;;;;;;5075410;28;20207;-79
2022/01/02 04:44:32;;;;;;;10.43;9.43;;;5.30;99.90;;;;;;5094864;28;20187;-80
2022/01/02 04:46:59;;;;;;;11.00;9.82;;;5.30;99.90;;;;;;5102048;28;21008;-79
2022/01/02 04:49:26;;;;;;;11.35;10.15;;;5.30;99.90;;;;;;5085073;28;20202;-79
2022/01/02 04:51:55;;;;;;;11.88;10.63;;;5.30;99.90;;;;;;5111962;28;20215;-79
2022/01/02 04:54:22;;;;;;;11.38;10.27;;;5.20;99.90;;;;;;5100247;28;20233;-80
2022/01/02 04:56:49;;;;;;;11.82;9.90;;;5.20;99.90;;;;;;5094185;28;20251;-79
2022/01/02 04:59:17;;;;;;;10.05;9.15;;;5.30;99.90;;;;;;5099165;28;20227;-80
2022/01/02 05:01:43;;;;;;;11.13;10.02;;;5.30;99.90;;;;;;5110957;28;20297;-79
2022/01/02 05:04:12;;;;;;;11.10;9.82;;;5.30;99.90;;;;;;5112067;28;20217;-79
2022/01/02 05:06:39;;;;;;;9.85;8.95;;;5.30;99.90;;;;;;5101498;28;20692;-79
2022/01/02 05:09:07;;;;;;;11.32;10.23;;;5.30;99.90;;;;;;5114739;28;20194;-78
2022/01/02 05:11:34;;;;;;;11.40;10.30;;;5.30;99.90;;;;;;5108450;28;20300;-79
2022/01/02 05:14:01;;;;;;;10.65;9.60;;;5.30;99.90;;;;;;5105269;28;20229;-80
2022/01/02 05:16:28;;;;;;;10.52;9.43;;;5.30;99.90;;;;;;5109798;28;20237;-79
2022/01/02 05:18:55;;;;;;;10.40;9.45;;;5.30;99.90;;;;;;5097412;28;20621;-79
2022/01/02 05:21:22;;;;;;;11.20;10.20;;;5.30;99.90;;;;;;5101363;28;20630;-79
2022/01/02 05:23:49;;;;;;;10.27;9.27;;;5.30;99.90;;;;;;5108468;28;20828;-79
2022/01/02 05:26:17;;;;;;;11.07;9.98;;;5.30;99.90;;;;;;5099645;28;20195;-80
2022/01/02 05:28:44;;;;;;;10.05;9.02;;;5.30;99.90;;;;;;5099716;28;20544;-79
2022/01/02 05:31:11;;;;;;;10.27;9.27;;;5.30;99.90;;;;;;5096373;28;20242;-79
2022/01/02 05:33:38;;;;;;;10.40;9.38;;;5.30;99.90;;;;;;5108401;28;20223;-79
2022/01/02 05:36:06;;;;;;;9.80;8.90;;;5.30;99.90;;;;;;5110680;28;20282;-79
2022/01/02 05:38:32;;;;;;;10.50;9.50;;;5.30;99.90;;;;;;5113429;28;20386;-79
2022/01/02 05:40:59;;;;;;;11.48;10.40;;;5.30;99.90;;;;;;5102451;28;20221;-79
2022/01/02 05:43:29;;;;;;;11.40;10.30;;;5.30;99.90;;;;;;5112355;28;20198;-79
2022/01/02 05:46:03;;;;;;;10.98;9.88;;;5.30;99.90;;;;;;5098674;28;20861;-80
2022/01/02 05:48:31;;;;;;;11.20;10.05;;;5.30;99.90;;;;;;5098772;28;20201;-79
2022/01/02 05:50:59;;;;;;;9.82;8.90;;;5.30;99.90;;;;;;5096504;28;20299;-79
2022/01/02 05:53:26;;;;;;;11.43;10.32;;;5.30;99.90;;;;;;5093479;28;20203;-80
2022/01/02 05:55:53;;;;;;;10.10;9.05;;;5.30;99.90;;;;;;5111729;28;20227;-79
2022/01/02 05:58:20;;;;;;;10.07;9.05;;;5.20;99.90;;;;;;5113566;28;20194;-79
2022/01/02 06:00:48;;;;;;;11.30;10.20;;;5.20;99.90;;;;;;5099250;28;20303;-79
2022/01/02 06:03:15;;;;;;;10.18;9.20;;;5.20;99.90;;;;;;5112176;28;20664;-79
2022/01/02 06:05:42;;;;;;;10.07;9.07;;;5.20;99.90;;;;;;5113772;28;20218;-79
2022/01/02 06:08:09;;;;;;;10.38;9.35;;;5.20;99.90;;;;;;5112180;28;20203;-79
2022/01/02 06:10:37;;;;;;;10.20;9.02;;;5.20;99.90;;;;;;5095049;28;20302;-79
2022/01/02 06:13:04;;;;;;;10.07;9.07;;;5.20;99.90;;;;;;5100376;28;20198;-79
2022/01/02 06:15:31;;;;;;;10.07;9.05;;;5.30;99.90;;;;;;5104803;28;20240;-80
2022/01/02 06:17:59;;;;;;;9.35;8.07;;;5.30;99.90;;;;;;5096772;28;20274;-79
2022/01/02 06:20:26;;;;;;;9.75;8.85;;;5.30;99.90;;;;;;5100203;28;20299;-79
2022/01/02 06:22:54;;;;;;;9.63;8.63;;;5.30;99.90;;;;;;5105594;28;20199;-79
2022/01/02 06:25:22;;;;;;;8.95;8.05;;;5.30;99.90;;;;;;5113596;28;20558;-79
2022/01/02 06:27:50;;;;;;;9.57;8.68;;;5.30;99.90;;;;;;5100817;28;20235;-79
2022/01/02 06:30:17;;;;;;;9.65;8.75;;;5.30;99.90;;;;;;5099488;28;20194;-79
2022/01/02 06:32:44;;;;;;;9.40;8.50;;;5.30;99.90;;;;;;5113059;28;20306;-79
2022/01/02 06:35:12;;;;;;;9.07;8.20;;;5.20;99.90;;;;;;5100174;28;20219;-79
2022/01/02 06:37:39;;;;;;;10.20;9.20;;;5.30;99.90;;;;;;5113532;28;20270;-79
2022/01/02 06:40:07;;;;;;;9.23;8.43;;;5.30;99.90;;;;;;5111642;28;20195;-79
2022/01/02 06:42:34;;;;;;;10.07;8.77;;;5.20;99.90;;;;;;5105383;28;20275;-79
2022/01/02 06:45:01;;;;;;;8.95;8.05;;;5.20;99.90;;;;;;5092433;28;20669;-79
2022/01/02 06:47:28;;;;;;;8.57;7.78;;;5.20;99.90;;;;;;5107447;28;20252;-79
2022/01/02 06:49:55;;;;;;;9.80;8.75;;;5.20;99.90;;;;;;5104159;28;20279;-79
2022/01/02 06:52:24;;;;;;;8.93;8.13;;;5.20;99.90;;;;;;5112726;28;20207;-81
2022/01/02 06:54:53;;;;;;;8.75;7.90;;;5.20;99.90;;;;;;5110783;28;20214;-80
2022/01/02 06:57:21;;;;;;;8.95;8.15;;;5.30;99.90;;;;;;5074939;28;20195;-79
2022/01/02 06:59:48;;;;;;;8.23;7.47;;;5.30;99.90;;;;;;5102260;27;20550;-80
2022/01/02 07:02:15;;;;;;;9.00;8.10;;;5.30;99.90;;;;;;5098612;28;20215;-77
2022/01/02 07:04:42;;;;;;;8.93;8.10;;;5.30;99.90;;;;;;5112229;28;20191;-83
2022/01/02 07:07:09;;;;;;;8.55;7.65;;;5.40;99.90;;;;;;5104765;28;20456;-79
2022/01/02 07:09:38;;;;;;;8.38;7.53;;;5.40;99.90;;;;;;5103314;28;20199;-78
2022/01/02 07:12:06;;;;;;;7.40;6.80;;;5.50;99.90;;;;;;5107601;28;20218;-78
2022/01/02 07:14:33;;;;;;;7.30;6.70;;;5.50;99.90;;;;;;5111333;28;20226;-80
2022/01/02 07:17:01;;;;;;;8.05;7.35;;;5.50;99.90;;;;;;5111981;28;20205;-79
2022/01/02 07:19:28;;;;;;;7.97;7.28;;;5.50;99.90;;;;;;5097744;28;20233;-79
2022/01/02 07:21:57;;;;;;;7.60;6.80;;;5.50;99.90;;;;;;5108867;28;20236;-80
2022/01/02 07:24:24;;;;;;;7.60;6.90;;;5.50;99.90;;;;;;5097359;28;20193;-79
2022/01/02 07:26:52;;;;;;;7.45;6.75;;;5.50;99.90;;;;;;5094813;28;20278;-81
2022/01/02 07:29:19;;;;;;;7.90;7.20;;;5.50;99.90;;;;;;5107854;28;20710;-80
2022/01/02 07:31:46;;;;;;;8.27;7.47;;;5.60;99.90;;;;;;5101220;28;20585;-79
2022/01/02 07:34:13;;;;;;;6.82;6.22;;;5.60;99.90;;;;;;5108273;28;20223;-78
2022/01/02 07:36:44;;;;;;;7.65;6.78;;;5.60;99.90;;;;;;5100575;28;20227;-79
2022/01/02 07:39:13;;;;;;;7.53;6.72;;;5.60;99.90;;;;;;5110627;28;20266;-79
2022/01/02 07:41:41;;;;;;;7.30;6.70;;;5.60;99.90;;;;;;5096502;28;20744;-79
2022/01/02 07:44:09;;;;;;;8.07;7.38;;;5.60;99.90;;;;;;5099149;28;20223;-80
2022/01/02 07:46:37;;;;;;;7.43;6.72;;;5.60;99.90;;;;;;5099045;28;20199;-79
2022/01/02 07:49:04;;;;;;;7.18;6.47;;;5.60;99.90;;;;;;5093650;28;20202;-80
2022/01/02 07:51:32;;;;;;;7.78;7.07;;;5.70;99.90;;;;;;5093961;28;20330;-79
2022/01/02 07:54:00;;;;;;;7.55;6.85;;;5.70;99.90;;;;;;5094421;28;20337;-80
2022/01/02 07:56:27;;;;;;;6.93;6.32;;;5.70;99.90;;;;;;5097147;28;20222;-80
2022/01/02 07:58:55;;;;;;;6.25;5.70;;;5.70;99.90;;;;;;5095924;28;20732;-79
2022/01/02 08:01:24;;;;;;;8.20;7.40;;;5.80;99.90;;;;;;5108658;28;20217;-80
2022/01/02 08:03:52;;;;;;;6.45;5.85;;;5.90;99.90;;;;;;5114052;28;20638;-79
2022/01/02 08:06:19;;;;;;;7.35;6.32;;;5.90;99.90;;;;;;5102806;28;20203;-79
2022/01/02 08:08:46;;;;;;;6.90;6.30;;;6.00;99.90;;;;;;5097830;27;20213;-80
2022/01/02 08:11:15;;;;;;;6.32;5.80;;;6.00;99.90;;;;;;5094615;27;20593;-79
2022/01/02 08:13:43;;;;;;;6.60;6.00;;;6.10;99.90;;;;;;5094405;28;20218;-81
2022/01/02 08:16:10;;;;;;;8.02;6.70;;;6.30;99.90;;;;;;5103540;28;20234;-81
2022/01/02 08:18:39;;;;;;;6.65;6.05;;;6.40;99.90;;;;;;5100331;28;20226;-82
2022/01/02 08:21:06;;;;;;;6.60;6.00;;;6.40;99.90;;;;;;5095475;28;20215;-94
2022/01/02 08:23:50;;;;;;;6.85;6.25;;;6.40;99.90;;;;;;5104681;27;20667;-96
2022/01/02 08:26:28;;;;;;;6.80;6.10;;;6.50;99.90;;;;;;5083552;28;21250;-94
2022/01/02 08:28:55;;;;;;;6.20;5.70;;;6.70;99.90;;;;;;5106185;27;20219;-84
2022/01/02 08:31:22;;;;;;;6.68;6.13;;;6.80;99.90;;;;;;5099901;28;20311;-84
2022/01/02 08:33:51;;;;;;;6.18;5.57;;;6.90;99.90;;;;;;5102948;28;20281;-90
2022/01/02 08:36:19;;;;;;;6.93;6.13;;;7.10;99.90;;;;;;5081299;28;20720;-90
2022/01/02 08:38:47;;;;;;;7.30;6.70;;;7.30;99.90;;;;;;5113838;28;20202;-87
2022/01/02 08:41:17;;;;;;;6.53;5.93;;;7.40;99.90;;;;;;5101316;27;20215;-85
2022/01/02 08:43:44;;;;;;;7.05;6.38;;;7.50;99.90;;;;;;5089926;28;20522;-85
2022/01/02 08:46:11;;;;;;;6.05;5.45;;;7.50;99.90;;;;;;5108019;28;20206;-85
2022/01/02 08:48:39;;;;;;;6.63;5.93;;;7.50;99.90;;;;;;5097184;27;20199;-86
2022/01/02 08:51:11;;;;;;;6.82;6.13;;;7.50;99.90;;;;;;5097801;28;20227;-86
2022/01/02 08:53:38;;;;;;;6.22;5.72;;;7.50;99.90;;;;;;5112779;28;20574;-86
2022/01/02 08:56:05;;;;;;;5.45;5.05;;;7.50;99.90;;;;;;5111632;28;20227;-86
2022/01/02 08:58:34;;;;;;;6.30;5.70;;;7.60;99.90;;;;;;5108323;28;20199;-85
2022/01/02 09:01:01;;;;;;;6.60;6.00;;;7.60;99.90;;;;;;5100772;28;20306;-87
2022/01/02 09:03:30;;;;;;;6.65;6.05;;;7.60;99.90;;;;;;5106847;27;20204;-92
2022/01/02 09:05:57;;;;;;;6.63;6.03;;;7.60;99.90;;;;;;5094741;28;20196;-92
2022/01/02 09:08:26;;;;;;;6.85;6.25;;;7.50;99.90;;;;;;5103130;28;20200;-90
2022/01/02 09:10:53;;;;;;;6.45;5.85;;;7.60;99.90;;;;;;5072399;28;20224;-91
2022/01/02 09:13:23;;;;;;;6.38;5.40;;;7.70;99.90;;;;;;5104232;28;20269;-91
2022/01/02 09:15:52;;;;;;;6.88;6.28;;;7.70;99.90;;;;;;5102922;28;20219;-90
2022/01/02 09:18:19;;;;;;;5.95;5.47;;;7.80;99.90;;;;;;5100323;28;20279;-91
2022/01/02 09:20:46;;;;;;;5.65;5.15;;;8.00;99.90;;;;;;5066226;28;20277;-91
2022/01/02 09:23:14;;;;;;;6.28;5.78;;;8.10;99.90;;;;;;5099823;28;20217;-91
2022/01/02 09:25:42;;;;;;;6.68;6.00;;;8.10;99.90;;;;;;5100852;28;20674;-92
2022/01/02 09:28:10;;;;;;;6.22;5.72;;;8.20;99.90;;;;;;5076444;28;20243;-91
2022/01/02 09:30:38;;;;;;;5.95;5.45;;;8.30;99.90;;;;;;5118119;28;20219;-91
2022/01/02 09:33:08;;;;;;;5.72;5.22;;;8.30;99.90;;;;;;5085895;28;20601;-91
2022/01/02 09:35:38;;;;;;;5.93;5.45;;;8.50;99.90;;;;;;5088414;28;20291;-91
2022/01/02 09:38:05;;;;;;;5.85;5.35;;;8.50;99.90;;;;;;5118978;28;20240;-91
2022/01/02 09:40:33;;;;;;;5.55;5.07;;;8.70;99.90;;;;;;5087857;28;20212;-92
2022/01/02 09:43:03;;;;;;;5.70;5.20;;;8.90;99.90;;;;;;5111282;28;20248;-91
2022/01/02 09:45:33;;;;;;;5.90;5.30;;;9.10;99.90;;;;;;5096686;28;20208;-91
2022/01/02 09:48:02;;;;;;;5.40;5.00;;;9.20;99.90;;;;;;5133220;28;20193;-91
2022/01/02 09:50:31;;;;;;;5.55;5.05;;;9.30;99.90;;;;;;5099070;28;20321;-91
2022/01/02 09:52:58;;;;;;;5.50;5.05;;;9.40;99.90;;;;;;5100840;28;20220;-92
2022/01/02 09:55:25;;;;;;;6.85;5.55;;;9.50;99.90;;;;;;5127614;28;20218;-91
2022/01/02 09:57:54;;;;;;;5.68;5.18;;;9.50;99.90;;;;;;5117036;28;20652;-92
2022/01/02 10:00:23;;;;;;;5.72;5.32;;;9.40;99.90;;;;;;5116875;28;20221;-90
2022/01/02 10:03:01;;;;;;;5.35;4.95;;;9.30;99.90;;;;;;5116656;28;20561;-89
2022/01/02 10:05:29;;;;;;;5.50;5.00;;;9.20;99.90;;;;;;5105811;28;20216;-89
2022/01/02 10:07:59;;;;;;;6.15;5.65;;;9.10;99.90;;;;;;5097887;28;20248;-89
2022/01/02 10:10:34;;;;;;;5.80;5.30;;;9.10;99.90;;;;;;5111885;28;20224;-89
2022/01/02 10:13:03;;;;;;;5.53;5.03;;;9.10;99.90;;;;;;5107227;28;20303;-90
2022/01/02 10:15:34;;;;;;;7.95;7.15;;;9.20;99.90;;;;;;5117434;28;20224;-90
2022/01/02 10:18:04;;;;;;;7.82;7.00;;;9.30;99.90;;;;;;5096558;28;20632;-90
2022/01/02 10:20:34;;;;;;;16.92;13.20;;;9.30;99.90;;;;;;5077581;28;20343;-89
2022/01/02 10:23:05;;;;;;;6.70;6.07;;;9.30;99.90;;;;;;5095341;28;20215;-90
2022/01/02 10:25:39;;;;;;;6.05;5.50;;;9.40;99.90;;;;;;5106260;28;20732;-90
2022/01/02 10:28:26;;;;;;;6.30;5.75;;;9.30;99.90;;;;;;5095481;28;20588;-90
2022/01/02 10:30:58;;;;;;;6.70;5.93;;;9.30;99.90;;;;;;5095441;28;20214;-90
2022/01/02 10:33:26;;;;;;;6.15;5.53;;;9.20;99.90;;;;;;5096853;28;20192;-90
2022/01/02 10:36:01;;;;;;;5.70;5.20;;;9.20;99.90;;;;;;5071491;28;20768;-90
2022/01/02 10:38:29;;;;;;;5.63;5.13;;;9.10;99.90;;;;;;5094810;28;20206;-90
2022/01/02 10:40:57;;;;;;;6.25;5.72;;;9.10;99.90;;;;;;5083995;28;20225;-90
2022/01/02 10:43:31;;;;;;;6.18;5.60;;;9.00;99.90;;;;;;5095219;28;20202;-89
2022/01/02 10:46:03;;;;;;;5.25;4.85;;;9.10;99.90;;;;;;5094505;28;20290;-90
2022/01/02 10:48:33;;;;;;;5.45;4.95;;;9.10;99.90;;;;;;5094797;28;20202;-89
2022/01/02 10:51:02;;;;;;;6.13;5.63;;;9.00;99.90;;;;;;5107397;28;20227;-89
2022/01/02 10:53:31;;;;;;;6.30;5.80;;;8.90;99.90;;;;;;5115691;28;20204;-90
2022/01/02 10:55:58;;;;;;;6.20;5.60;;;8.80;99.90;;;;;;5115294;28;20796;-91
2022/01/02 10:58:27;;;;;;;7.30;5.40;;;8.70;99.90;;;;;;5104311;28;20288;-90
2022/01/02 11:01:01;;;;;;;6.20;5.60;;;8.70;99.90;;;;;;5097040;28;20222;-89
2022/01/02 11:03:31;;;;;;;7.43;6.72;;;8.70;99.90;;;;;;5111266;28;20228;-90
2022/01/02 11:06:05;;;;;;;6.93;6.28;;;8.70;99.90;;;;;;5093403;28;20669;-89
2022/01/02 11:08:34;;;;;;;6.72;5.97;;;8.70;99.90;;;;;;5116486;28;20279;-90
2022/01/02 11:11:02;;;;;;;6.50;5.90;;;8.90;99.90;;;;;;5099619;28;20259;-89
2022/01/02 11:13:30;;;;;;;7.05;6.38;;;8.90;99.90;;;;;;5095383;28;20206;-90
2022/01/02 11:16:00;;;;;;;6.65;6.05;;;9.00;99.90;;;;;;5106538;28;20266;-90
2022/01/02 11:18:31;;;;;;;7.10;6.50;;;8.90;99.90;;;;;;5114926;28;20194;-89
2022/01/02 11:20:59;;;;;;;5.88;5.35;;;9.00;99.90;;;;;;5090046;28;20251;-90
2022/01/02 11:23:32;;;;;;;5.80;5.30;;;9.00;99.90;;;;;;5077140;28;20199;-90
2022/01/02 11:26:09;;;;;;;6.50;5.90;;;9.00;99.90;;;;;;5111540;28;20631;-90
2022/01/02 11:28:39;;;;;;;5.70;5.22;;;9.00;99.90;;;;;;5102482;28;20201;-90
2022/01/02 11:31:09;;;;;;;5.75;5.20;;;9.10;99.90;;;;;;5100126;28;20349;-90
2022/01/02 11:33:40;;;;;;;5.93;5.32;;;9.20;99.90;;;;;;5117730;28;20196;-90
2022/01/02 11:36:27;;;;;;;6.28;5.18;;;9.30;99.90;;;;;;5111704;28;20220;-89
2022/01/02 11:39:02;;;;;;;6.40;5.80;;;9.40;99.90;;;;;;5114684;28;20288;-90
2022/01/02 11:41:41;;;;;;;8.50;5.75;;;9.50;99.90;;;;;;5083764;28;20352;-90
2022/01/02 11:44:09;;;;;;;6.10;5.50;;;9.50;99.90;;;;;;5097043;28;20227;-90
2022/01/02 11:46:50;;;;;;;6.05;5.45;;;9.50;99.90;;;;;;5112624;28;20200;-90
2022/01/02 11:49:23;;;;;;;6.22;5.28;;;9.50;99.90;;;;;;5108720;28;20246;-90
2022/01/02 11:52:09;;;;;;;5.35;4.90;;;9.50;99.90;;;;;;5095924;28;20309;-90
2022/01/02 11:54:46;;;;;;;5.43;4.90;;;9.50;99.90;;;;;;5095508;28;20289;-90
2022/01/02 11:57:54;;;;;;;6.20;5.65;;;9.50;99.90;;;;;;5104093;28;20242;-89
2022/01/02 12:00:46;;;;;;;6.45;5.85;;;9.50;99.90;;;;;;5107724;28;20219;-90
2022/01/02 12:03:52;;;;;;;6.07;5.47;;;9.50;99.90;;;;;;5074650;28;20236;-90
2022/01/02 12:06:34;;;;;;;6.45;5.95;;;9.60;99.90;;;;;;5096344;28;20664;-90
2022/01/02 12:09:04;;;;;;;6.25;5.75;;;9.60;99.90;;;;;;5094390;28;20210;-90
2022/01/02 12:11:39;;;;;;;7.30;5.63;;;9.70;99.90;;;;;;5090304;28;20227;-89
2022/01/02 12:14:09;;;;;;;6.30;5.70;;;9.70;99.90;;;;;;5093917;28;20307;-89
2022/01/02 12:16:37;;;;;;;6.95;6.32;;;9.70;99.90;;;;;;5094439;28;20219;-90
2022/01/02 12:19:06;;;;;;;5.70;5.20;;;9.90;99.90;;;;;;5094541;28;20209;-90
2022/01/02 12:21:34;;;;;;;5.65;5.15;;;10.30;99.90;;;;;;5094711;28;20223;-90
2022/01/02 12:24:03;;;;;;;6.30;5.70;;;10.60;99.90;;;;;;5096566;28;20286;-90
2022/01/02 12:26:32;;;;;;;5.93;5.38;;;10.60;99.90;;;;;;5096967;28;20210;-90
2022/01/02 12:29:02;;;;;;;5.50;5.00;;;10.90;99.90;;;;;;5100061;28;20192;-90
2022/01/02 12:31:32;;;;;;;5.70;5.18;;;11.10;99.90;;;;;;5097800;28;20258;-89
2022/01/02 12:34:10;;;;;;;5.57;5.07;;;11.30;99.90;;;;;;5106145;28;20198;-89
2022/01/02 12:36:41;;;;;;;5.53;5.03;;;11.60;99.90;;;;;;5107966;28;20226;-89
2022/01/02 12:39:09;;;;;;;4.90;4.47;;;11.70;99.90;;;;;;5105231;28;20228;-90
2022/01/02 12:41:40;;;;;;;2.67;2.15;;;12.00;99.90;;;;;;5122544;28;20306;-90
2022/01/02 12:44:10;;;;;;;2.20;1.60;;;12.30;99.90;;;;;;5104778;28;20195;-90
2022/01/02 12:46:41;;;;;;;1.67;1.40;;;13.30;99.90;;;;;;5089397;28;20259;-90
2022/01/02 12:49:15;;;;;;;1.70;1.23;;;14.00;99.90;;;;;;5107088;28;20599;-90
2022/01/02 12:51:44;;;;;;;2.27;1.73;;;14.50;99.90;;;;;;5116841;28;20500;-90
2022/01/02 12:54:14;;;;;;;3.10;1.40;;;14.90;99.90;;;;;;5085322;28;20454;-90
2022/01/02 12:56:43;;;;;;;2.30;1.40;;;15.30;99.90;;;;;;5079654;28;20484;-89
2022/01/02 12:59:34;;;;;;;3.70;1.50;;;15.60;99.90;;;;;;5096659;28;20492;-90
2022/01/02 13:02:05;;;;;;;1.47;1.30;;;15.90;99.90;;;;;;5094452;28;20494;-91
2022/01/02 13:04:36;;;;;;;1.30;1.20;;;16.20;99.90;;;;;;5080232;28;20526;-90